Comunidad Stella, Puerto Rico
Current Conditions -  °F | °C
As of 11:50 AM on Saturday 20 Dec 2014 (Local Time) from TJBQ Reporting Station
Scattered Clouds Scattered Clouds  
Wind Chill: 82°   Ceiling: Unl
Heat Index: 86°   Visibility: 10mi
Dew Point: 70°   Wind: 14mph
Humidity: 66%   Direction: 90°E
Pressure: 30.05"   Gusts: 21mph
Location:  18.3427°N, 67.2504°W
Report Text: TJBQ 201550Z 09012G18KT 10SM SCT030 28/21 A3005 RMK RWY08 ATIS L
Loading
Personal Weather Stations






























Interactive Weather Map New forecast layout! Learn more

10-Day Weather Forecast

Advertisements
Track Severe Weather on mobile